Time;durP1;ratioP1;P1;durP2;ratioP2;P2;SDS_P1;SDS_P2;PMS_P1;PMS_P2;Temp;Humidity;BMP_temperature;BMP_pressure;BME280_temperature;BME280_humidity;BME280_pressure;Samples;Min_cycle;Max_cycle;Signal;HPM_P1;HPM_P2
2021/03/12 00:00:18;;;;;;;;;;;;;;;;;;20916871;28;1902;-61
2021/03/12 00:11:02;;;;;;;;;;;;;;;;;;20969135;28;1365;-61
2021/03/12 00:21:24;;;;;;;;;;;;;;;;;;20968559;28;1906;-60
2021/03/12 00:31:59;;;;;;;;;;;;;;;;;;20943212;28;1144;-61
2021/03/12 00:42:34;;;;;;;;;;;;;;;;;;20884289;28;1902;-62
2021/03/12 00:53:09;;;;;;;;;;;;;;;;;;20886637;28;1150;-59
2021/03/12 01:03:30;;;;;;;;;;;;;;;;;;20958844;28;1898;-56
2021/03/12 01:13:57;;;;;;;;;;;;;;;;;;20980475;28;1979;-57
2021/03/12 01:24:22;;;;;;;;;;;;;;;;;;20981005;28;1902;-54
2021/03/12 01:35:03;;;;;;;;;;;;;;;;;;20960736;28;1246;-58
2021/03/12 01:45:39;;;;;;;;;;;;;;;;;;20883772;28;1894;-60
2021/03/12 01:56:00;;;;;;;;;;;;;;;;;;20895142;28;1074;-61
2021/03/12 02:06:46;;;;;;;;;;;;;;;;;;20800477;28;1906;-61
2021/03/12 02:17:11;;;;;;;;;;;;;;;;;;20838993;28;1218;-60
2021/03/12 02:27:34;;;;;;;;;;;;;;;;;;20837283;28;1902;-60
2021/03/12 02:38:10;;;;;;;;;;;;;;;;;;20823421;28;1168;-57
2021/03/12 02:48:50;;;;;;;;;;;;;;;;;;20808474;28;1977;-58
2021/03/12 02:59:13;;;;;;;;;;;;;;;;;;20853102;28;1238;-59
2021/03/12 03:10:07;;;;;;;;;;;;;;;;;;20972275;28;1184;-61
2021/03/12 03:20:42;;;;;;;;;;;;;;;;;;20971904;28;1985;-60
2021/03/12 03:31:17;;;;;;;;;;;;;;;;;;20970962;28;1364;-63
2021/03/12 03:41:54;;;;;;;;;;;;;;;;;;20818477;28;1906;-60
2021/03/12 03:52:19;;;;;;;;;;;;;;;;;;20804033;28;1132;-59
2021/03/12 04:02:48;;;;;;;;;;;;;;;;;;20906912;28;1985;-62
2021/03/12 04:13:16;;;;;;;;;;;;;;;;;;20950673;28;1158;-61
2021/03/12 04:23:37;;;;;;;;;;;;;;;;;;20911014;28;1913;-61
2021/03/12 04:34:00;;;;;;;;;;;;;;;;;;20934277;28;1321;-58
2021/03/12 04:44:21;;;;;;;;;;;;;;;;;;20921097;28;1909;-61
2021/03/12 04:54:44;;;;;;;;;;;;;;;;;;20894234;28;1393;-61
2021/03/12 05:05:09;;;;;;;;;;;;;;;;;;20948691;28;1979;-59
2021/03/12 05:15:31;;;;;;;;;;;;;;;;;;20959207;28;1053;-61
2021/03/12 05:25:52;;;;;;;;;;;;;;;;;;20959459;28;1979;-61
2021/03/12 05:36:28;;;;;;;;;;;;;;;;;;20921824;28;1175;-61
2021/03/12 05:46:49;;;;;;;;;;;;;;;;;;20889018;28;1910;-60
2021/03/12 05:57:10;;;;;;;;;;;;;;;;;;20897500;28;1273;-61
2021/03/12 06:07:47;;;;;;;;;;;;;;;;;;20987932;28;1902;-61
2021/03/12 06:18:16;;;;;;;;;;;;;;;;;;20928761;28;1246;-62
2021/03/12 06:28:41;;;;;;;;;;;;;;;;;;20970473;28;1902;-61
2021/03/12 06:39:11;;;;;;;;;;;;;;;;;;20910444;28;1187;-57
2021/03/12 06:49:53;;;;;;;;;;;;;;;;;;20886507;28;1988;-61
2021/03/12 07:00:43;;;;;;;;;;;;;;;;;;20905529;28;1981;-61
2021/03/12 07:11:23;;;;;;;;;;;;;;;;;;20968277;28;1146;-55
2021/03/12 07:22:19;;;;;;;;;;;;;;;;;;20889994;28;1894;-62
2021/03/12 07:32:58;;;;;;;;;;;;;;;;;;20972044;28;1152;-62
2021/03/12 07:43:29;;;;;;;;;;;;;;;;;;20879898;28;1902;-61
2021/03/12 07:54:34;;;;;;;;;;;;;;;;;;20882473;28;1068;-60
2021/03/12 08:04:59;;;;;;;;;;;;;;;;;;20948574;28;1989;-61
2021/03/12 08:15:34;;;;;;;;;;;;;;;;;;20964369;28;1115;-61
2021/03/12 08:26:39;;;;;;;;;;;;;;;;;;20975267;28;1989;-61
2021/03/12 08:37:39;;;;;;;;;;;;;;;;;;20915414;28;1168;-61
2021/03/12 08:48:22;;;;;;;;;;;;;;;;;;20878132;28;1894;-61
2021/03/12 08:58:59;;;;;;;;;;;;;;;;;;20898554;28;1356;-61
2021/03/12 09:09:42;;;;;;;;;;;;;;;;;;20961036;28;1975;-62
2021/03/12 09:20:34;;;;;;;;;;;;;;;;;;20972805;28;1902;-61
2021/03/12 09:31:07;;;;;;;;;;;;;;;;;;20949331;28;1448;-61
2021/03/12 09:41:53;;;;;;;;;;;;;;;;;;20897787;28;1906;-61
2021/03/12 09:52:17;;;;;;;;;;;;;;;;;;20880421;28;1074;-61
2021/03/12 10:02:51;;;;;;;;;;;;;;;;;;20944231;28;1914;-61
2021/03/12 10:13:51;;;;;;;;;;;;;;;;;;20973114;28;1269;-59
2021/03/12 10:24:30;;;;;;;;;;;;;;;;;;20971642;28;1967;-61
2021/03/12 10:34:52;;;;;;;;;;;;;;;;;;20947865;28;1135;-60
2021/03/12 10:45:35;;;;;;;;;;;;;;;;;;20872356;28;1910;-61
2021/03/12 10:56:04;;;;;;;;;;;;;;;;;;20887256;28;1205;-61
2021/03/12 11:06:31;;;;;;;;;;;;;;;;;;20787768;28;1910;-61
2021/03/12 11:16:51;;;;;;;;;;;;;;;;;;20803129;28;1082;-59
2021/03/12 11:27:27;;;;;;;;;;;;;;;;;;20799631;28;1985;-60
2021/03/12 11:38:03;;;;;;;;;;;;;;;;;;20849701;28;1152;-60
2021/03/12 11:48:24;;;;;;;;;;;;;;;;;;20866589;28;1989;-60
2021/03/12 11:58:59;;;;;;;;;;;;;;;;;;20903433;28;1422;-58
2021/03/12 12:09:35;;;;;;;;;;;;;;;;;;20962551;28;1891;-61
2021/03/12 12:20:29;;;;;;;;;;;;;;;;;;20961647;28;1090;-60
2021/03/12 12:30:50;;;;;;;;;;;;;;;;;;20962140;28;1454;-60
2021/03/12 12:41:12;;;;;;;;;;;;;;;;;;20869532;28;1977;-61
2021/03/12 12:51:47;;;;;;;;;;;;;;;;;;20865121;28;1123;-60
2021/03/12 13:02:13;;;;;;;;;;;;;;;;;;20909601;28;1989;-60
2021/03/12 13:12:49;;;;;;;;;;;;;;;;;;20959030;28;1069;-61
2021/03/12 13:23:26;;;;;;;;;;;;;;;;;;20958480;28;1992;-59
2021/03/12 13:33:49;;;;;;;;;;;;;;;;;;20943535;28;1537;-59
2021/03/12 13:44:12;;;;;;;;;;;;;;;;;;20876429;28;1986;-60
2021/03/12 13:54:33;;;;;;;;;;;;;;;;;;20877139;28;1151;-59
2021/03/12 14:05:09;;;;;;;;;;;;;;;;;;20957001;28;1890;-60
2021/03/12 14:15:30;;;;;;;;;;;;;;;;;;20971440;28;1184;-61
2021/03/12 14:26:05;;;;;;;;;;;;;;;;;;20972127;28;1902;-61
2021/03/12 14:36:59;;;;;;;;;;;;;;;;;;20922388;28;1433;-62
2021/03/12 14:47:21;;;;;;;;;;;;;;;;;;20874930;28;2226;-62
2021/03/12 14:57:58;;;;;;;;;;;;;;;;;;20900231;28;1233;-61
2021/03/12 15:08:33;;;;;;;;;;;;;;;;;;20547734;28;9999820;-63
2021/03/12 15:18:54;;;;;;;;;;;;;;;;;;20891577;28;1130;-60
2021/03/12 15:29:31;;;;;;;;;;;;;;;;;;20847373;28;1911;-61
2021/03/12 15:39:52;;;;;;;;;;;;;;;;;;20855282;28;1191;-61
2021/03/12 15:50:17;;;;;;;;;;;;;;;;;;20846961;28;2040;-61
2021/03/12 16:00:39;;;;;;;;;;;;;;;;;;20872804;28;2255;-62
2021/03/12 16:11:00;;;;;;;;;;;;;;;;;;20906104;28;2615;-62
2021/03/12 16:21:23;;;;;;;;;;;;;;;;;;20936684;28;1921;-61
2021/03/12 16:32:11;;;;;;;;;;;;;;;;;;20959268;28;1521;-61
2021/03/12 16:42:34;;;;;;;;;;;;;;;;;;20919370;28;1980;-61
2021/03/12 16:52:59;;;;;;;;;;;;;;;;;;20940899;28;1090;-60
2021/03/12 17:03:37;;;;;;;;;;;;;;;;;;20862116;28;2422;-61
2021/03/12 17:14:04;;;;;;;;;;;;;;;;;;20804444;28;1146;-62
2021/03/12 17:24:29;;;;;;;;;;;;;;;;;;20790169;28;1902;-62
2021/03/12 17:35:08;;;;;;;;;;;;;;;;;;20810464;28;1191;-62
2021/03/12 17:45:45;;;;;;;;;;;;;;;;;;20897498;28;1922;-61
2021/03/12 17:56:20;;;;;;;;;;;;;;;;;;20886804;28;1316;-62
2021/03/12 18:06:55;;;;;;;;;;;;;;;;;;20846983;28;2387;-62
2021/03/12 18:17:18;;;;;;;;;;;;;;;;;;20799983;28;1269;-60
2021/03/12 18:27:55;;;;;;;;;;;;;;;;;;20811488;28;1895;-61
2021/03/12 18:38:30;;;;;;;;;;;;;;;;;;20846183;28;1225;-61
2021/03/12 18:49:10;;;;;;;;;;;;;;;;;;20869408;28;2028;-61
2021/03/12 18:59:30;;;;;;;;;;;;;;;;;;20906464;28;2160;-62
2021/03/12 19:09:51;;;;;;;;;;;;;;;;;;20822988;28;1899;-61
2021/03/12 19:20:13;;;;;;;;;;;;;;;;;;20849481;28;1470;-62
2021/03/12 19:30:48;;;;;;;;;;;;;;;;;;20879705;28;1906;-63
2021/03/12 19:41:09;;;;;;;;;;;;;;;;;;20901677;28;1177;-64
2021/03/12 19:51:45;;;;;;;;;;;;;;;;;;20869311;28;1067;-47
2021/03/12 20:02:05;;;;;;;;;;;;;;;;;;20921302;28;1987;-38
2021/03/12 20:12:26;;;;;;;;;;;;;;;;;;20954427;28;1045;-42
2021/03/12 20:22:46;;;;;;;;;;;;;;;;;;20956044;28;1918;-46
2021/03/12 20:33:07;;;;;;;;;;;;;;;;;;20955470;28;1189;-43
2021/03/12 20:43:41;;;;;;;;;;;;;;;;;;20807381;28;1971;-45
2021/03/12 20:54:16;;;;;;;;;;;;;;;;;;20896070;28;1178;-42
2021/03/12 21:04:51;;;;;;;;;;;;;;;;;;20897685;28;1996;-40
2021/03/12 21:15:12;;;;;;;;;;;;;;;;;;20906226;28;1750;-44
2021/03/12 21:25:32;;;;;;;;;;;;;;;;;;20898733;28;1902;-50
2021/03/12 21:35:53;;;;;;;;;;;;;;;;;;20895032;28;1139;-49
2021/03/12 21:46:14;;;;;;;;;;;;;;;;;;20895565;28;1973;-41
2021/03/12 21:56:48;;;;;;;;;;;;;;;;;;20897830;28;1288;-44
2021/03/12 22:07:08;;;;;;;;;;;;;;;;;;20896733;28;1981;-48
2021/03/12 22:17:29;;;;;;;;;;;;;;;;;;20893286;28;1621;-44
2021/03/12 22:28:06;;;;;;;;;;;;;;;;;;20879883;28;1905;-47
2021/03/12 22:38:41;;;;;;;;;;;;;;;;;;20892122;28;1172;-41
2021/03/12 22:49:18;;;;;;;;;;;;;;;;;;20891498;28;1938;-52
2021/03/12 22:59:53;;;;;;;;;;;;;;;;;;20919061;28;1372;-49
2021/03/12 23:10:21;;;;;;;;;;;;;;;;;;20986397;28;1969;-51
2021/03/12 23:20:46;;;;;;;;;;;;;;;;;;20971281;28;1477;-49
2021/03/12 23:42:29;;;;;;;;;;;;;;;;;;20885325;28;1980;-49
2021/03/12 23:53:04;;;;;;;;;;;;;;;;;;20888990;28;1020;-49
